Bookmark and Share
Track history (hours):
 

Poplar Arrow

Last reported at 2014-Apr-23 01:21 UTC. Time now 2014-Apr-24 06:25 UTC.
Position N 29°42' E 123°11'.

Length 190 m; draft 11.7 m.

Type: Ship (hazmat cat D). MMSI: 311744000.

NotesDate/timePositionNaut miles runAvg speedWind from/ knotsBaromVisibWave heightAir tempDewpointWater temp
2014-Apr-23 01:21N 29°42' E 123°11'1012.6
2014-Apr-23 00:33N 29°51' E 123°14'1526.9
2014-Apr-23 00:00N 30°06' E 123°18'3 6.9 030 / 61019.0 5.4 0.516.012.4
2014-Apr-22 23:33N 30°03' E 123°17'1212.0
2014-Apr-22 22:33N 30°15' E 123°21'1311.7
2014-Apr-22 21:28N 30°27' E 123°21'1111.7
2014-Apr-22 20:33N 30°38' E 123°20'1211.7
2014-Apr-22 19:31N 30°50' E 123°20'1312.0
2014-Apr-22 18:25N 31°03' E 123°20'1212.3
2014-Apr-22 17:28N 31°15' E 123°20'31512.4
2014-Apr-21 16:00N 36°30' E 123°18'   270 / 81017.8 5.4 0.512.5 9.612.0
2014-Apr-17 06:32N 37°37' E 122°47'2311.2
2014-Apr-17 04:29N 37°17' E 123°03'2410.0
2014-Apr-17 02:07N 36°54' E 123°09'711.7
2014-Apr-17 01:33N 36°48' E 123°11'33910.8
2014-Apr-15 18:07N 31°14' E 122°06'812.9
2014-Apr-15 17:32N 31°15' E 121°57'1111.3
2014-Apr-15 16:33N 31°19' E 121°44'8 8.2
2014-Apr-15 15:33N 31°23' E 121°36'7 7.2
2014-Apr-15 14:33N 31°26' E 121°29'10 4.8
2014-Apr-15 12:34N 31°33' E 121°20'2412.2
2014-Apr-15 10:34N 31°47' E 120°57'1111.3
2014-Apr-15 09:34N 31°57' E 120°52'1010.2
2014-Apr-15 08:34N 31°60' E 120°40'10 9.8
2014-Apr-15 07:34N 32°04' E 120°30'9 8.6
2014-Apr-15 06:34N 31°59' E 120°21'9 9.1
2014-Apr-15 05:34N 31°56' E 120°12'  

Dump ship's entire track history

sailing weather and tide predictions

Poplar Arrow — C6TQ3 — position and weather